Time;durP1;ratioP1;P1;durP2;ratioP2;P2;SDS_P1;SDS_P2;PMS_P1;PMS_P2;Temp;Humidity;BMP_temperature;BMP_pressure;BME280_temperature;BME280_humidity;BME280_pressure;Samples;Min_cycle;Max_cycle;Signal;HPM_P1;HPM_P2
2022/01/30 00:00:31;;;;;;;27.75;3.65;;;;;;;;;;4946286;28;20035;-58
2022/01/30 00:02:56;;;;;;;19.90;4.00;;;;;;;;;;4963713;28;20042;-58
2022/01/30 00:05:22;;;;;;;30.67;3.50;;;;;;;;;;4936394;28;20038;-58
2022/01/30 00:07:48;;;;;;;23.25;3.70;;;;;;;;;;4947744;28;21055;-60
2022/01/30 00:10:14;;;;;;;29.63;3.53;;;;;;;;;;4953568;28;20031;-58
2022/01/30 00:15:11;;;;;;;25.42;3.25;;;;;;;;;;4961782;28;20438;-60
2022/01/30 00:17:43;;;;;;;27.73;3.97;;;;;;;;;;4965215;28;20046;-57
2022/01/30 00:20:18;;;;;;;25.17;2.83;;;;;;;;;;4959011;28;20038;-59
2022/01/30 00:23:28;;;;;;;5.40;1.17;;;;;;;;;;4944796;28;20517;-57
2022/01/30 00:25:44;;;;;;;31.85;1.98;;;;;;;;;;4957447;28;20050;-56
2022/01/30 00:28:14;;;;;;;12.68;2.05;;;;;;;;;;4962143;28;20076;-58
2022/01/30 00:30:39;;;;;;;23.73;3.65;;;;;;;;;;4945899;28;20048;-57
2022/01/30 00:33:10;;;;;;;26.33;3.05;;;;;;;;;;4962872;28;20027;-57
2022/01/30 00:35:38;;;;;;;15.55;2.42;;;;;;;;;;4946337;28;20042;-57
2022/01/30 00:38:04;;;;;;;15.20;2.15;;;;;;;;;;4961358;28;20042;-59
2022/01/30 00:40:30;;;;;;;8.75;1.50;;;;;;;;;;4962270;28;20399;-58
2022/01/30 00:42:58;;;;;;;10.55;1.77;;;;;;;;;;4963705;28;20042;-58
2022/01/30 00:45:26;;;;;;;17.98;3.30;;;;;;;;;;4946164;28;20160;-58
2022/01/30 00:47:51;;;;;;;16.27;2.33;;;;;;;;;;4949990;28;20048;-56
2022/01/30 00:50:19;;;;;;;15.18;2.60;;;;;;;;;;4942083;28;20054;-58
2022/01/30 00:52:53;;;;;;;32.95;4.32;;;;;;;;;;4934844;28;20122;-57
2022/01/30 00:55:19;;;;;;;17.80;3.05;;;;;;;;;;4961037;28;20039;-58
2022/01/30 00:57:47;;;;;;;18.25;3.05;;;;;;;;;;4962066;28;20115;-57
2022/01/30 01:00:13;;;;;;;26.55;3.70;;;;;;;;;;4927599;28;21135;-58
2022/01/30 01:02:40;;;;;;;26.45;3.08;;;;;;;;;;4946522;28;20043;-59
2022/01/30 01:05:06;;;;;;;20.73;3.80;;;;;;;;;;4962038;28;20023;-58
2022/01/30 01:07:41;;;;;;;39.97;4.07;;;;;;;;;;4949881;28;20033;-59
2022/01/30 01:10:23;;;;;;;;;;;;;;;;;;4962137;28;20026;-58
2022/01/30 01:13:49;;;;;;;14.88;2.05;;;;;;;;;;4951767;28;20000;-59
2022/01/30 01:23:55;;;;;;;31.88;3.58;;;;;;;;;;4946707;28;20108;-57
2022/01/30 01:26:23;;;;;;;36.03;4.78;;;;;;;;;;4957847;28;20044;-58
2022/01/30 01:28:49;;;;;;;33.47;5.18;;;;;;;;;;4961509;28;20114;-59
2022/01/30 01:31:17;;;;;;;31.17;5.10;;;;;;;;;;4950091;28;20027;-58
2022/01/30 01:36:24;;;;;;;19.10;2.65;;;;;;;;;;4961571;28;20590;-59
2022/01/30 01:38:52;;;;;;;33.95;3.33;;;;;;;;;;4962205;28;20049;-58
2022/01/30 01:41:19;;;;;;;19.23;2.65;;;;;;;;;;4961289;28;22037;-58
2022/01/30 01:43:45;;;;;;;33.22;3.47;;;;;;;;;;4962713;28;20038;-58
2022/01/30 01:46:20;;;;;;;23.02;3.47;;;;;;;;;;4958988;28;20049;-58
2022/01/30 01:48:52;;;;;;;45.85;4.38;;;;;;;;;;4931986;28;20042;-58
2022/01/30 01:51:24;;;;;;;25.13;2.83;;;;;;;;;;4949589;28;20577;-58
2022/01/30 01:53:51;;;;;;;30.00;3.78;;;;;;;;;;4951924;28;20493;-58
2022/01/30 01:56:18;;;;;;;39.00;4.03;;;;;;;;;;4967466;28;20157;-57
2022/01/30 01:58:43;;;;;;;21.42;3.22;;;;;;;;;;4967992;28;20578;-57
2022/01/30 02:01:09;;;;;;;28.15;3.65;;;;;;;;;;4966528;28;20156;-60
2022/01/30 02:03:35;;;;;;;28.92;3.75;;;;;;;;;;4961710;28;20112;-58
2022/01/30 02:06:04;;;;;;;30.67;4.30;;;;;;;;;;4965602;28;20041;-58
2022/01/30 02:24:39;;;;;;;46.13;5.22;;;;;;;;;;4965255;28;20490;-60
2022/01/30 02:27:11;;;;;;;31.70;3.67;;;;;;;;;;4965275;28;20737;-57
2022/01/30 02:29:37;;;;;;;39.28;5.40;;;;;;;;;;4963573;28;20715;-56
2022/01/30 02:32:02;;;;;;;26.00;4.03;;;;;;;;;;4945226;28;20031;-58
2022/01/30 02:34:33;;;;;;;27.65;3.72;;;;;;;;;;4964355;28;21425;-59
2022/01/30 02:37:01;;;;;;;35.85;4.57;;;;;;;;;;4963437;28;20080;-57
2022/01/30 02:39:31;;;;;;;44.47;4.40;;;;;;;;;;4954761;28;20042;-56
2022/01/30 02:42:01;;;;;;;33.95;4.30;;;;;;;;;;4964251;28;20049;-58
2022/01/30 02:44:41;;;;;;;46.08;5.22;;;;;;;;;;4964320;28;20445;-58
2022/01/30 02:47:21;;;;;;;57.80;5.70;;;;;;;;;;4938490;28;20581;-57
2022/01/30 02:50:09;;;;;;;50.72;5.78;;;;;;;;;;4962710;28;20030;-59
2022/01/30 02:52:36;;;;;;;36.05;5.78;;;;;;;;;;4947890;28;20035;-58
2022/01/30 02:55:02;;;;;;;34.28;5.60;;;;;;;;;;4962948;28;20367;-59
2022/01/30 02:57:32;;;;;;;40.85;5.57;;;;;;;;;;4952170;28;20031;-58
2022/01/30 02:59:58;;;;;;;52.78;4.38;;;;;;;;;;4947293;28;20031;-59
2022/01/30 03:02:26;;;;;;;46.90;5.60;;;;;;;;;;4950551;28;20182;-58
2022/01/30 03:04:54;;;;;;;42.72;4.82;;;;;;;;;;4960031;28;20019;-59
2022/01/30 03:07:19;;;;;;;45.85;3.92;;;;;;;;;;4962051;28;20065;-59
2022/01/30 03:09:44;;;;;;;40.28;6.30;;;;;;;;;;4962368;28;20039;-58
2022/01/30 03:12:12;;;;;;;46.60;5.05;;;;;;;;;;4953396;28;20031;-58
2022/01/30 03:14:42;;;;;;;30.27;4.00;;;;;;;;;;4952216;28;20034;-59
2022/01/30 03:17:12;;;;;;;63.10;4.95;;;;;;;;;;4933390;28;20672;-55
2022/01/30 03:19:37;;;;;;;42.60;6.22;;;;;;;;;;4951448;28;20030;-59
2022/01/30 03:22:05;;;;;;;45.42;7.30;;;;;;;;;;4962240;28;20072;-59
2022/01/30 03:24:35;;;;;;;37.03;4.20;;;;;;;;;;4962061;28;20053;-58
2022/01/30 03:27:01;;;;;;;58.22;5.32;;;;;;;;;;4944892;28;21746;-59
2022/01/30 03:29:26;;;;;;;53.67;5.70;;;;;;;;;;4962619;28;20069;-59
2022/01/30 03:31:54;;;;;;;37.35;4.18;;;;;;;;;;4962268;28;20029;-59
2022/01/30 03:34:22;;;;;;;46.42;5.13;;;;;;;;;;4960834;28;20077;-60
2022/01/30 03:36:52;;;;;;;47.85;6.13;;;;;;;;;;4944021;28;20204;-58
2022/01/30 03:39:22;;;;;;;48.20;5.10;;;;;;;;;;4942095;28;20574;-59
2022/01/30 03:41:48;;;;;;;41.85;4.97;;;;;;;;;;4952193;28;20126;-59
2022/01/30 03:44:13;;;;;;;41.63;4.78;;;;;;;;;;4964178;28;20042;-59
2022/01/30 03:46:38;;;;;;;41.17;4.88;;;;;;;;;;4963526;28;20126;-60
2022/01/30 03:49:09;;;;;;;52.22;4.85;;;;;;;;;;4964287;28;20045;-59
2022/01/30 03:51:39;;;;;;;36.53;6.13;;;;;;;;;;4961986;28;20045;-59
2022/01/30 03:54:04;;;;;;;34.00;4.53;;;;;;;;;;4946528;28;20671;-60
2022/01/30 03:56:30;;;;;;;48.35;5.80;;;;;;;;;;4954130;28;20053;-59
2022/01/30 03:58:57;;;;;;;59.92;5.78;;;;;;;;;;4945729;28;20031;-59
2022/01/30 04:01:23;;;;;;;51.78;5.45;;;;;;;;;;4952886;28;20061;-59
2022/01/30 04:03:52;;;;;;;36.38;4.22;;;;;;;;;;4963081;28;22224;-59
2022/01/30 04:06:18;;;;;;;42.00;5.10;;;;;;;;;;4963019;28;20042;-60
2022/01/30 04:08:44;;;;;;;30.35;4.60;;;;;;;;;;4946405;28;20038;-60
2022/01/30 04:11:09;;;;;;;49.60;5.90;;;;;;;;;;4962270;28;20037;-59
2022/01/30 04:16:46;;;;;;;43.10;6.40;;;;;;;;;;4962961;28;20181;-57
2022/01/30 04:19:16;;;;;;;46.25;5.78;;;;;;;;;;4946885;28;20587;-58
2022/01/30 04:21:41;;;;;;;66.57;6.30;;;;;;;;;;4945667;28;20042;-56
2022/01/30 04:24:09;;;;;;;59.38;7.22;;;;;;;;;;4947839;28;20501;-59
2022/01/30 04:26:36;;;;;;;75.13;7.45;;;;;;;;;;4962445;28;20049;-59
2022/01/30 04:29:04;;;;;;;71.93;6.32;;;;;;;;;;4960797;28;20026;-58
2022/01/30 04:31:32;;;;;;;38.85;6.00;;;;;;;;;;4962411;28;20537;-58
2022/01/30 04:33:57;;;;;;;48.75;7.35;;;;;;;;;;4949624;28;20170;-58
2022/01/30 04:36:33;;;;;;;58.70;7.72;;;;;;;;;;4919734;28;20026;-59
2022/01/30 04:39:15;;;;;;;79.25;7.65;;;;;;;;;;4948381;28;20039;-58
2022/01/30 04:52:07;;;;;;;63.50;6.93;;;;;;;;;;4965621;28;20117;-59
2022/01/30 04:53:22;;;;;;;52.67;6.93;;;;;;;;;;4963645;28;20038;-60
2022/01/30 05:06:33;;;;;;;56.08;6.32;;;;;;;;;;4944743;28;20467;-58
2022/01/30 05:09:03;;;;;;;65.65;7.53;;;;;;;;;;4946934;28;20623;-56
2022/01/30 05:11:28;;;;;;;58.35;7.00;;;;;;;;;;4946920;28;20046;-57
2022/01/30 05:13:56;;;;;;;56.47;6.75;;;;;;;;;;4946719;28;20039;-58
2022/01/30 05:16:23;;;;;;;51.95;6.93;;;;;;;;;;4946230;28;20034;-59
2022/01/30 05:18:49;;;;;;;58.17;5.95;;;;;;;;;;4961174;28;20042;-58
2022/01/30 05:21:15;;;;;;;59.75;7.05;;;;;;;;;;4960183;28;20076;-59
2022/01/30 05:23:45;;;;;;;40.15;6.53;;;;;;;;;;4960181;28;20035;-60
2022/01/30 05:26:11;;;;;;;40.13;4.95;;;;;;;;;;4960528;28;21004;-58
2022/01/30 05:28:37;;;;;;;52.05;4.72;;;;;;;;;;4949419;28;20685;-59
2022/01/30 05:31:05;;;;;;;36.38;6.07;;;;;;;;;;4942430;28;20096;-58
2022/01/30 05:33:33;;;;;;;59.30;5.78;;;;;;;;;;4960956;28;20038;-57
2022/01/30 05:35:58;;;;;;;38.40;5.30;;;;;;;;;;4944919;28;20041;-60
2022/01/30 05:38:24;;;;;;;43.90;6.20;;;;;;;;;;4961454;28;20026;-60
2022/01/30 05:40:52;;;;;;;65.75;7.07;;;;;;;;;;4944067;28;20030;-58
2022/01/30 05:43:22;;;;;;;67.53;7.65;;;;;;;;;;4943151;28;20904;-58
2022/01/30 05:45:55;;;;;;;53.35;6.22;;;;;;;;;;4942362;28;20035;-57
2022/01/30 05:48:26;;;;;;;60.20;8.00;;;;;;;;;;4961221;28;21010;-56
2022/01/30 05:50:51;;;;;;;51.35;6.93;;;;;;;;;;4944960;28;20039;-59
2022/01/30 05:53:16;;;;;;;44.20;5.10;;;;;;;;;;4946613;28;20088;-58
2022/01/30 05:55:44;;;;;;;37.25;4.85;;;;;;;;;;4950826;28;20104;-61
2022/01/30 05:58:12;;;;;;;52.47;5.18;;;;;;;;;;4941712;28;20545;-59
2022/01/30 06:00:42;;;;;;;43.08;5.03;;;;;;;;;;4959724;28;20511;-58
2022/01/30 06:03:15;;;;;;;27.27;4.30;;;;;;;;;;4945876;28;20043;-58
2022/01/30 06:05:46;;;;;;;47.33;4.70;;;;;;;;;;4959183;28;20038;-60
2022/01/30 06:08:15;;;;;;;44.88;6.75;;;;;;;;;;4949321;28;20104;-59
2022/01/30 06:10:41;;;;;;;52.83;6.57;;;;;;;;;;4943948;28;20030;-60
2022/01/30 06:13:07;;;;;;;43.65;5.90;;;;;;;;;;4947929;28;20080;-59
2022/01/30 06:15:37;;;;;;;48.78;5.75;;;;;;;;;;4930191;28;20038;-59
2022/01/30 06:18:05;;;;;;;41.53;6.00;;;;;;;;;;4960357;28;20027;-58
2022/01/30 06:20:30;;;;;;;51.05;5.50;;;;;;;;;;4959185;28;20119;-58
2022/01/30 06:22:57;;;;;;;38.70;5.90;;;;;;;;;;4960504;28;20042;-58
2022/01/30 06:25:25;;;;;;;55.58;6.05;;;;;;;;;;4933510;28;20065;-59
2022/01/30 06:27:51;;;;;;;39.70;5.68;;;;;;;;;;4960966;28;20493;-59
2022/01/30 06:30:21;;;;;;;69.40;9.10;;;;;;;;;;4955727;28;20035;-58
2022/01/30 06:32:47;;;;;;;64.20;7.43;;;;;;;;;;4961199;28;20030;-60
2022/01/30 06:35:18;;;;;;;45.28;6.90;;;;;;;;;;4959053;28;20120;-60
2022/01/30 06:37:48;;;;;;;48.42;4.78;;;;;;;;;;4922756;28;20037;-59
2022/01/30 06:40:14;;;;;;;45.33;5.55;;;;;;;;;;4946397;28;20038;-60
2022/01/30 06:46:18;;;;;;;35.55;6.55;;;;;;;;;;4963911;28;20093;-60
2022/01/30 06:48:46;;;;;;;45.85;5.00;;;;;;;;;;4963219;28;20034;-59
2022/01/30 06:51:14;;;;;;;25.92;4.40;;;;;;;;;;4943005;28;20035;-60
2022/01/30 06:53:39;;;;;;;48.10;5.80;;;;;;;;;;4951617;28;20044;-59
2022/01/30 06:56:06;;;;;;;43.38;6.43;;;;;;;;;;4961798;28;20208;-62
2022/01/30 06:58:31;;;;;;;53.85;5.55;;;;;;;;;;4961797;28;20030;-62
2022/01/30 07:00:59;;;;;;;50.42;7.45;;;;;;;;;;4963089;28;20054;-61
2022/01/30 07:03:27;;;;;;;60.50;7.25;;;;;;;;;;4959624;28;20031;-60
2022/01/30 07:05:52;;;;;;;40.42;7.70;;;;;;;;;;4963464;28;20042;-61
2022/01/30 07:08:18;;;;;;;50.53;7.00;;;;;;;;;;4954657;28;20481;-61
2022/01/30 07:10:50;;;;;;;58.28;6.43;;;;;;;;;;4963592;28;20034;-60
2022/01/30 07:13:20;;;;;;;64.55;6.35;;;;;;;;;;4962231;28;20116;-61
2022/01/30 07:15:48;;;;;;;54.38;5.85;;;;;;;;;;4945561;28;20045;-61
2022/01/30 07:18:14;;;;;;;39.78;5.75;;;;;;;;;;4929166;28;20522;-60
2022/01/30 07:20:41;;;;;;;30.02;4.82;;;;;;;;;;4934749;28;20054;-60
2022/01/30 07:23:09;;;;;;;40.70;4.97;;;;;;;;;;4944465;28;20038;-60
2022/01/30 07:25:34;;;;;;;44.58;5.60;;;;;;;;;;4951141;28;20053;-62
2022/01/30 07:28:02;;;;;;;48.28;5.72;;;;;;;;;;4940469;28;20035;-60
2022/01/30 07:30:28;;;;;;;29.80;5.05;;;;;;;;;;4950056;28;20031;-61
2022/01/30 07:32:55;;;;;;;32.88;5.22;;;;;;;;;;4955372;28;20038;-60
2022/01/30 07:35:23;;;;;;;37.70;5.82;;;;;;;;;;4957751;28;20058;-62
2022/01/30 07:37:54;;;;;;;30.58;4.65;;;;;;;;;;4958398;28;20153;-60
2022/01/30 07:40:24;;;;;;;19.33;4.03;;;;;;;;;;4944544;28;20039;-60
2022/01/30 07:42:49;;;;;;;32.53;5.30;;;;;;;;;;4948682;28;20039;-62
2022/01/30 07:45:17;;;;;;;55.70;5.53;;;;;;;;;;4940958;28;20046;-59
2022/01/30 07:47:45;;;;;;;36.72;4.63;;;;;;;;;;4948091;28;20036;-60
2022/01/30 07:50:15;;;;;;;51.85;4.55;;;;;;;;;;4929480;28;20035;-61
2022/01/30 07:52:40;;;;;;;44.95;5.20;;;;;;;;;;4945721;28;20030;-61
2022/01/30 07:55:08;;;;;;;43.92;4.63;;;;;;;;;;4945492;28;20037;-61
2022/01/30 07:57:34;;;;;;;31.13;5.13;;;;;;;;;;4955996;28;20533;-60
2022/01/30 08:00:05;;;;;;;48.92;6.20;;;;;;;;;;4955626;28;20037;-62
2022/01/30 08:02:32;;;;;;;38.65;6.03;;;;;;;;;;4955203;28;20118;-59
2022/01/30 08:04:58;;;;;;;40.97;5.95;;;;;;;;;;4955235;28;20099;-60
2022/01/30 08:07:27;;;;;;;36.15;5.47;;;;;;;;;;4950471;28;20042;-61
2022/01/30 08:09:52;;;;;;;28.95;4.43;;;;;;;;;;4957489;28;20110;-60
2022/01/30 08:12:19;;;;;;;39.00;5.18;;;;;;;;;;4948190;28;20493;-60
2022/01/30 08:14:45;;;;;;;43.78;6.90;;;;;;;;;;4929609;28;20506;-61
2022/01/30 08:17:20;;;;;;;48.80;6.22;;;;;;;;;;4943440;28;20035;-61
2022/01/30 08:19:46;;;;;;;;;;;;;;;;;;4947915;28;20033;-62
2022/01/30 08:22:16;;;;;;;44.45;5.70;;;;;;;;;;4941916;28;20453;-60
2022/01/30 08:24:42;;;;;;;48.05;6.28;;;;;;;;;;4956000;28;20047;-62
2022/01/30 08:27:09;;;;;;;50.85;5.78;;;;;;;;;;4940299;28;20129;-62
2022/01/30 08:29:37;;;;;;;39.65;5.38;;;;;;;;;;4945582;28;20058;-62
2022/01/30 08:32:04;;;;;;;41.33;6.22;;;;;;;;;;4954671;28;20054;-62
2022/01/30 08:34:32;;;;;;;50.45;6.63;;;;;;;;;;4942821;28;20034;-62
2022/01/30 08:36:57;;;;;;;39.47;5.05;;;;;;;;;;4940465;28;20059;-60
2022/01/30 08:39:27;;;;;;;36.90;4.82;;;;;;;;;;4915649;28;20039;-62
2022/01/30 08:41:53;;;;;;;40.70;5.30;;;;;;;;;;4940146;28;20086;-61
2022/01/30 08:44:23;;;;;;;33.50;4.95;;;;;;;;;;4952566;28;20038;-62
2022/01/30 08:46:51;;;;;;;42.75;5.88;;;;;;;;;;4945474;28;20039;-61
2022/01/30 08:49:17;;;;;;;40.33;3.65;;;;;;;;;;4941250;28;20730;-62
2022/01/30 08:51:45;;;;;;;33.15;4.75;;;;;;;;;;4941101;28;20034;-60
2022/01/30 08:54:11;;;;;;;37.08;4.72;;;;;;;;;;4928579;28;20035;-62
2022/01/30 08:56:39;;;;;;;40.70;5.47;;;;;;;;;;4944112;28;20038;-61
2022/01/30 08:59:06;;;;;;;51.47;5.80;;;;;;;;;;4916291;28;20066;-62
2022/01/30 09:01:36;;;;;;;35.90;4.20;;;;;;;;;;4943318;28;20049;-58
2022/01/30 09:04:04;;;;;;;47.95;5.78;;;;;;;;;;4923552;28;20455;-63
2022/01/30 09:06:32;;;;;;;49.53;6.35;;;;;;;;;;4941487;28;20696;-61
2022/01/30 09:09:02;;;;;;;43.45;6.05;;;;;;;;;;4925412;28;20191;-61
2022/01/30 09:11:34;;;;;;;28.85;5.20;;;;;;;;;;4937351;28;21019;-62
2022/01/30 09:13:59;;;;;;;46.67;6.22;;;;;;;;;;4944127;28;20163;-62
2022/01/30 09:16:30;;;;;;;44.92;5.18;;;;;;;;;;4929946;28;20034;-61
2022/01/30 09:18:56;;;;;;;39.95;5.60;;;;;;;;;;4944057;28;20815;-60
2022/01/30 09:21:28;;;;;;;41.35;5.90;;;;;;;;;;4952107;28;20038;-62
2022/01/30 09:23:56;;;;;;;33.10;5.18;;;;;;;;;;4954693;28;20031;-63
2022/01/30 09:26:24;;;;;;;29.77;5.00;;;;;;;;;;4960309;28;20070;-62
2022/01/30 09:28:52;;;;;;;34.25;5.30;;;;;;;;;;4958999;28;20038;-62
2022/01/30 09:31:17;;;;;;;45.53;4.95;;;;;;;;;;4945933;28;20022;-62
2022/01/30 09:33:46;;;;;;;26.20;4.85;;;;;;;;;;4956717;28;20382;-64
2022/01/30 09:36:16;;;;;;;33.33;5.05;;;;;;;;;;4927246;28;20035;-62
2022/01/30 09:38:42;;;;;;;36.45;5.80;;;;;;;;;;4960358;28;20051;-62
2022/01/30 09:41:10;;;;;;;23.33;4.13;;;;;;;;;;4960066;28;20050;-60
2022/01/30 09:43:38;;;;;;;39.72;5.43;;;;;;;;;;4959653;28;20031;-61
2022/01/30 09:46:06;;;;;;;44.45;5.75;;;;;;;;;;4961602;28;20117;-60
2022/01/30 09:48:34;;;;;;;34.53;4.60;;;;;;;;;;4948892;28;20066;-61
2022/01/30 09:51:04;;;;;;;28.02;4.03;;;;;;;;;;4960671;28;20050;-62
2022/01/30 09:53:33;;;;;;;38.28;5.32;;;;;;;;;;4945071;28;20030;-62
2022/01/30 09:56:06;;;;;;;28.40;4.32;;;;;;;;;;4960450;28;20802;-62
2022/01/30 09:58:32;;;;;;;36.70;4.72;;;;;;;;;;4941601;28;20979;-58
2022/01/30 10:01:01;;;;;;;37.40;5.18;;;;;;;;;;4959115;28;20031;-61
2022/01/30 10:03:29;;;;;;;35.80;3.65;;;;;;;;;;4949222;28;20039;-61
2022/01/30 10:06:03;;;;;;;32.53;5.03;;;;;;;;;;4955742;28;20076;-61
2022/01/30 10:08:32;;;;;;;26.23;4.72;;;;;;;;;;4960486;28;20121;-62
2022/01/30 10:11:15;;;;;;;39.63;5.35;;;;;;;;;;4946355;28;20042;-61
2022/01/30 10:13:42;;;;;;;26.20;4.53;;;;;;;;;;4944392;28;20036;-62
2022/01/30 10:16:10;;;;;;;29.90;4.35;;;;;;;;;;4953285;28;20030;-61
2022/01/30 10:18:43;;;;;;;36.00;4.97;;;;;;;;;;4964587;28;20707;-61
2022/01/30 10:21:17;;;;;;;34.17;4.97;;;;;;;;;;4936976;28;20034;-62
2022/01/30 10:23:45;;;;;;;29.45;4.35;;;;;;;;;;4966563;28;20069;-62
2022/01/30 10:26:12;;;;;;;37.97;5.82;;;;;;;;;;4964237;28;20121;-61
2022/01/30 10:28:42;;;;;;;48.00;6.00;;;;;;;;;;4965153;28;20027;-61
2022/01/30 10:31:12;;;;;;;32.75;5.20;;;;;;;;;;4950306;28;20023;-60
2022/01/30 10:33:52;;;;;;;45.33;6.35;;;;;;;;;;4949243;28;20022;-62
2022/01/30 10:36:25;;;;;;;34.83;4.68;;;;;;;;;;4963377;28;20066;-62
2022/01/30 10:39:04;;;;;;;30.83;4.60;;;;;;;;;;4945952;28;20088;-61
2022/01/30 10:41:41;;;;;;;36.50;4.93;;;;;;;;;;4963045;28;21051;-61
2022/01/30 10:44:07;;;;;;;39.38;5.20;;;;;;;;;;4938366;28;20426;-59
2022/01/30 10:46:38;;;;;;;34.35;5.57;;;;;;;;;;4954013;28;20187;-59
2022/01/30 10:49:08;;;;;;;43.67;5.53;;;;;;;;;;4965214;28;20387;-61
2022/01/30 10:51:36;;;;;;;36.78;4.38;;;;;;;;;;4963719;28;20030;-61
2022/01/30 10:54:08;;;;;;;38.50;4.63;;;;;;;;;;4945812;28;20581;-61
2022/01/30 10:56:34;;;;;;;37.47;5.50;;;;;;;;;;4940350;28;21088;-61
2022/01/30 10:59:06;;;;;;;26.92;3.75;;;;;;;;;;4961957;28;20422;-61
2022/01/30 11:01:35;;;;;;;34.88;4.95;;;;;;;;;;4952893;28;20038;-61
2022/01/30 11:04:06;;;;;;;24.60;4.60;;;;;;;;;;4951403;28;20121;-60
2022/01/30 11:06:40;;;;;;;26.50;4.40;;;;;;;;;;4955196;28;20618;-61
2022/01/30 11:09:18;;;;;;;34.38;4.25;;;;;;;;;;4964044;28;20546;-61
2022/01/30 11:11:50;;;;;;;35.45;4.55;;;;;;;;;;4962082;28;20507;-61
2022/01/30 11:14:21;;;;;;;29.83;4.32;;;;;;;;;;4955404;28;20038;-60
2022/01/30 11:17:03;;;;;;;37.88;4.55;;;;;;;;;;4947321;28;20086;-60
2022/01/30 11:19:34;;;;;;;29.83;3.90;;;;;;;;;;4960812;28;20030;-60
2022/01/30 11:22:06;;;;;;;33.45;4.18;;;;;;;;;;4932744;28;20038;-59
2022/01/30 11:24:34;;;;;;;40.20;4.70;;;;;;;;;;4962012;28;20041;-60
2022/01/30 11:27:03;;;;;;;30.58;4.65;;;;;;;;;;4954003;28;20042;-59
2022/01/30 11:29:28;;;;;;;31.92;5.22;;;;;;;;;;4956688;28;20045;-59
2022/01/30 11:31:54;;;;;;;22.83;4.15;;;;;;;;;;4946714;28;20034;-61
2022/01/30 11:34:26;;;;;;;29.80;5.70;;;;;;;;;;4963214;28;20035;-61
2022/01/30 11:36:56;;;;;;;28.05;4.53;;;;;;;;;;4962806;28;20117;-60
2022/01/30 11:39:24;;;;;;;34.22;4.45;;;;;;;;;;4944973;28;20042;-59
2022/01/30 11:42:06;;;;;;;27.25;5.20;;;;;;;;;;4963499;28;20053;-60
2022/01/30 11:44:31;;;;;;;31.67;5.07;;;;;;;;;;4960854;28;20034;-59
2022/01/30 11:46:59;;;;;;;34.15;5.80;;;;;;;;;;4964775;28;20426;-60
2022/01/30 11:49:38;;;;;;;27.27;3.95;;;;;;;;;;4945430;28;20350;-62
2022/01/30 11:52:06;;;;;;;37.22;5.15;;;;;;;;;;4963555;28;20066;-60
2022/01/30 11:54:32;;;;;;;28.85;4.13;;;;;;;;;;4961701;28;20030;-60
2022/01/30 11:56:58;;;;;;;27.08;3.78;;;;;;;;;;4946114;28;20490;-63
2022/01/30 11:59:34;;;;;;;30.45;4.85;;;;;;;;;;4946185;28;20057;-59
2022/01/30 12:02:21;;;;;;;34.70;5.57;;;;;;;;;;4950971;28;20045;-62
2022/01/30 12:04:59;;;;;;;27.00;5.35;;;;;;;;;;4960063;28;20674;-62
2022/01/30 12:07:36;;;;;;;27.50;4.57;;;;;;;;;;4962577;28;20043;-60
2022/01/30 12:10:20;;;;;;;24.48;4.88;;;;;;;;;;4962579;28;20058;-59
2022/01/30 12:12:56;;;;;;;26.48;4.38;;;;;;;;;;4938961;28;20063;-62
2022/01/30 12:15:36;;;;;;;28.55;4.97;;;;;;;;;;4960215;28;20030;-61
2022/01/30 12:18:05;;;;;;;41.50;5.10;;;;;;;;;;4963765;28;20027;-60
2022/01/30 12:20:49;;;;;;;41.35;4.43;;;;;;;;;;4937021;28;20049;-61
2022/01/30 12:23:30;;;;;;;27.07;3.53;;;;;;;;;;4945123;28;20490;-61
2022/01/30 12:26:06;;;;;;;25.75;4.72;;;;;;;;;;4961706;28;20054;-61
2022/01/30 12:28:55;;;;;;;32.90;5.50;;;;;;;;;;4961403;28;20050;-61
2022/01/30 12:31:23;;;;;;;26.92;4.40;;;;;;;;;;4961428;28;20033;-60
2022/01/30 12:34:00;;;;;;;27.98;3.85;;;;;;;;;;4953503;28;21038;-61
2022/01/30 12:36:28;;;;;;;26.35;4.20;;;;;;;;;;4930878;28;20101;-60
2022/01/30 12:38:55;;;;;;;23.13;4.28;;;;;;;;;;4951974;28;20043;-61
2022/01/30 12:41:21;;;;;;;40.28;4.40;;;;;;;;;;4946361;28;20034;-59
2022/01/30 12:43:56;;;;;;;28.92;3.67;;;;;;;;;;4960324;28;20042;-58
2022/01/30 12:46:26;;;;;;;27.33;4.28;;;;;;;;;;4960570;28;20062;-58
2022/01/30 12:49:08;;;;;;;29.98;4.50;;;;;;;;;;4961710;28;20136;-59
2022/01/30 12:51:37;;;;;;;20.85;3.85;;;;;;;;;;4961263;28;20026;-60
2022/01/30 12:54:03;;;;;;;33.65;4.35;;;;;;;;;;4961844;28;20120;-62
2022/01/30 12:56:35;;;;;;;30.90;3.70;;;;;;;;;;4961235;28;20901;-60
2022/01/30 12:59:06;;;;;;;23.65;3.80;;;;;;;;;;4963662;28;21675;-61
2022/01/30 13:01:39;;;;;;;26.88;3.88;;;;;;;;;;4961323;28;20041;-61
2022/01/30 13:04:09;;;;;;;25.92;4.40;;;;;;;;;;4960136;28;20121;-60
2022/01/30 13:06:40;;;;;;;34.78;4.55;;;;;;;;;;4952990;28;20034;-62
2022/01/30 13:09:07;;;;;;;32.40;4.32;;;;;;;;;;4947774;28;20023;-61
2022/01/30 13:11:38;;;;;;;25.08;3.70;;;;;;;;;;4962469;28;20038;-60
2022/01/30 13:14:04;;;;;;;30.20;4.35;;;;;;;;;;4944183;28;20122;-59
2022/01/30 13:16:45;;;;;;;25.25;3.67;;;;;;;;;;4958836;28;20488;-60
2022/01/30 13:19:12;;;;;;;27.13;3.92;;;;;;;;;;4935972;28;20647;-60
2022/01/30 13:21:40;;;;;;;21.20;4.13;;;;;;;;;;4948824;28;20112;-60
2022/01/30 13:24:10;;;;;;;24.65;4.32;;;;;;;;;;4960332;28;20069;-61
2022/01/30 13:26:37;;;;;;;28.67;5.15;;;;;;;;;;4928226;28;20054;-63
2022/01/30 13:29:05;;;;;;;35.83;5.35;;;;;;;;;;4960472;28;20225;-63
2022/01/30 13:31:33;;;;;;;31.77;3.90;;;;;;;;;;4958734;28;20030;-61
2022/01/30 13:34:18;;;;;;;30.40;3.72;;;;;;;;;;4943038;28;20022;-61
2022/01/30 13:36:53;;;;;;;22.60;4.18;;;;;;;;;;4942322;28;20054;-63
2022/01/30 13:39:29;;;;;;;27.40;4.28;;;;;;;;;;4957264;28;20050;-63
2022/01/30 13:45:06;;;;;;;42.43;5.03;;;;;;;;;;4940798;28;20034;-62
2022/01/30 13:47:33;;;;;;;16.92;3.58;;;;;;;;;;4930193;28;20026;-62
2022/01/30 13:49:59;;;;;;;25.73;3.83;;;;;;;;;;4962529;28;20043;-61
2022/01/30 13:52:36;;;;;;;39.53;4.45;;;;;;;;;;4943285;28;20151;-62
2022/01/30 13:55:09;;;;;;;28.67;3.28;;;;;;;;;;4957026;28;20038;-63
2022/01/30 13:57:42;;;;;;;30.85;3.05;;;;;;;;;;4960869;28;20037;-63
2022/01/30 14:00:12;;;;;;;24.65;3.53;;;;;;;;;;4951313;28;20046;-63
2022/01/30 14:02:54;;;;;;;27.55;3.58;;;;;;;;;;4961464;28;20034;-64
2022/01/30 14:05:23;;;;;;;20.42;2.83;;;;;;;;;;4955774;28;20048;-62
2022/01/30 14:07:49;;;;;;;27.33;4.47;;;;;;;;;;4962278;28;20154;-63
2022/01/30 14:10:14;;;;;;;37.08;3.92;;;;;;;;;;4961259;28;20023;-63
2022/01/30 14:12:45;;;;;;;16.58;3.15;;;;;;;;;;4925834;28;20557;-61
2022/01/30 14:15:12;;;;;;;40.10;4.53;;;;;;;;;;4961473;28;20073;-63
2022/01/30 14:17:43;;;;;;;33.25;4.47;;;;;;;;;;4942558;28;20070;-61
2022/01/30 14:20:18;;;;;;;36.42;3.92;;;;;;;;;;4953779;28;20066;-61
2022/01/30 14:22:45;;;;;;;;;;;;;;;;;;4957454;28;20050;-63
2022/01/30 14:25:13;;;;;;;22.55;3.17;;;;;;;;;;4960163;28;19976;-62
2022/01/30 14:27:39;;;;;;;25.02;4.68;;;;;;;;;;4953813;28;20057;-63
2022/01/30 14:30:11;;;;;;;24.40;3.65;;;;;;;;;;4962709;28;20022;-62
2022/01/30 14:32:42;;;;;;;22.42;3.88;;;;;;;;;;4951345;28;20517;-63
2022/01/30 14:35:11;;;;;;;36.33;3.75;;;;;;;;;;4934110;28;20376;-62
2022/01/30 14:37:39;;;;;;;45.90;4.63;;;;;;;;;;4954308;28;20524;-63
2022/01/30 14:40:08;;;;;;;34.95;4.72;;;;;;;;;;4961032;28;20290;-63
2022/01/30 14:42:34;;;;;;;25.23;4.82;;;;;;;;;;4963005;28;20043;-62
2022/01/30 14:45:06;;;;;;;26.45;4.00;;;;;;;;;;4952419;28;20030;-66
2022/01/30 14:47:35;;;;;;;19.05;3.45;;;;;;;;;;4960605;28;20069;-63
2022/01/30 14:50:03;;;;;;;23.33;4.07;;;;;;;;;;4936924;28;20061;-63
2022/01/30 14:52:28;;;;;;;22.88;3.33;;;;;;;;;;4960096;28;20042;-62
2022/01/30 14:54:56;;;;;;;37.28;4.32;;;;;;;;;;4957879;28;20039;-63
2022/01/30 14:57:24;;;;;;;28.40;3.83;;;;;;;;;;4962522;28;20022;-63
2022/01/30 14:59:54;;;;;;;34.63;4.07;;;;;;;;;;4931663;28;20035;-61
2022/01/30 15:02:24;;;;;;;30.92;4.10;;;;;;;;;;4943711;28;20722;-62
2022/01/30 15:04:52;;;;;;;36.80;4.53;;;;;;;;;;4930606;28;20049;-63
2022/01/30 15:07:23;;;;;;;29.60;3.60;;;;;;;;;;4962112;28;21001;-62
2022/01/30 15:09:48;;;;;;;33.53;4.28;;;;;;;;;;4963733;28;20117;-61
2022/01/30 15:12:17;;;;;;;34.08;5.20;;;;;;;;;;4942153;28;20045;-62
2022/01/30 15:14:51;;;;;;;35.33;4.53;;;;;;;;;;4963038;28;20044;-60
2022/01/30 15:17:30;;;;;;;29.73;4.47;;;;;;;;;;4961632;28;20035;-61
2022/01/30 15:19:57;;;;;;;29.17;4.18;;;;;;;;;;4962664;28;20049;-63
2022/01/30 15:22:23;;;;;;;26.33;4.75;;;;;;;;;;4958600;28;20520;-62
2022/01/30 15:24:54;;;;;;;42.47;4.85;;;;;;;;;;4962614;28;20046;-62
2022/01/30 15:27:23;;;;;;;31.02;4.18;;;;;;;;;;4963384;28;20044;-62
2022/01/30 15:29:49;;;;;;;31.48;4.82;;;;;;;;;;4951369;28;20031;-63
2022/01/30 15:32:18;;;;;;;41.75;5.03;;;;;;;;;;4961552;28;20026;-63
2022/01/30 15:34:46;;;;;;;20.60;4.25;;;;;;;;;;4960979;28;20031;-63
2022/01/30 15:37:14;;;;;;;34.92;5.30;;;;;;;;;;4960612;28;20030;-62
2022/01/30 15:39:41;;;;;;;35.85;4.63;;;;;;;;;;4950804;28;20045;-63
2022/01/30 15:42:07;;;;;;;20.65;4.07;;;;;;;;;;4943611;28;20034;-61